Time;durP1;ratioP1;P1;durP2;ratioP2;P2;SDS_P1;SDS_P2;PMS_P1;PMS_P2;Temp;Humidity;BMP_temperature;BMP_pressure;BME280_temperature;BME280_humidity;BME280_pressure;Samples;Min_cycle;Max_cycle;Signal;HPM_P1;HPM_P2
2024/01/25 00:01:18;;;;;;;6.70;2.08;;;7.20;99.90;;;;;;4987635;28;20042;-77
2024/01/25 00:03:44;;;;;;;10.07;2.10;;;7.10;99.90;;;;;;4991965;28;20030;-76
2024/01/25 00:06:10;;;;;;;9.13;3.50;;;7.00;99.90;;;;;;4987456;28;20091;-77
2024/01/25 00:08:36;;;;;;;11.10;1.48;;;7.00;99.90;;;;;;4965614;28;20046;-77
2024/01/25 00:11:02;;;;;;;10.43;1.73;;;7.00;99.90;;;;;;4973033;28;20050;-75
2024/01/25 00:13:28;;;;;;;17.20;2.38;;;6.90;99.90;;;;;;4995693;28;20061;-77
2024/01/25 00:15:54;;;;;;;12.30;1.95;;;6.90;99.90;;;;;;4992354;28;20038;-76
2024/01/25 00:18:20;;;;;;;11.65;2.25;;;6.90;99.90;;;;;;4979809;28;20134;-77
2024/01/25 00:20:46;;;;;;;8.70;1.35;;;6.80;99.90;;;;;;4992231;28;20087;-75
2024/01/25 00:23:12;;;;;;;4.97;1.63;;;6.80;99.90;;;;;;4979160;28;20051;-76
2024/01/25 00:25:38;;;;;;;7.22;1.92;;;6.80;99.90;;;;;;4981145;28;20038;-77
2024/01/25 00:28:04;;;;;;;12.57;2.85;;;6.80;99.90;;;;;;4985267;28;20038;-76
2024/01/25 00:30:29;;;;;;;9.55;2.20;;;6.70;99.90;;;;;;4986108;28;20041;-76
2024/01/25 00:32:59;;;;;;;13.05;2.30;;;6.70;99.90;;;;;;4983136;28;20042;-76
2024/01/25 00:35:25;;;;;;;14.52;3.47;;;6.60;99.90;;;;;;4980525;28;20070;-76
2024/01/25 00:37:51;;;;;;;4.10;1.92;;;6.60;99.90;;;;;;4972315;28;20034;-76
2024/01/25 00:40:18;;;;;;;12.43;1.60;;;6.60;99.90;;;;;;4970360;28;20376;-77
2024/01/25 00:42:53;;;;;;;4.25;1.55;;;6.60;99.90;;;;;;4988089;28;20038;-76
2024/01/25 00:45:20;;;;;;;9.45;1.48;;;6.50;99.90;;;;;;4983172;28;20128;-76
2024/01/25 00:47:46;;;;;;;8.82;1.58;;;6.50;99.90;;;;;;4987866;28;20510;-76
2024/01/25 00:50:12;;;;;;;12.45;1.48;;;6.50;99.90;;;;;;4983194;28;20052;-76
2024/01/25 00:52:39;;;;;;;10.88;1.90;;;6.50;99.90;;;;;;4981504;28;20458;-76
2024/01/25 00:55:09;;;;;;;11.70;1.63;;;6.40;99.90;;;;;;4979992;28;20423;-76
2024/01/25 00:57:35;;;;;;;13.48;2.15;;;6.40;99.90;;;;;;4982362;28;20038;-76
2024/01/25 01:00:02;;;;;;;15.13;3.03;;;6.30;99.90;;;;;;4993157;28;20044;-77
2024/01/25 01:02:35;;;;;;;8.32;2.15;;;6.30;99.90;;;;;;4987853;28;20046;-76
2024/01/25 01:05:03;;;;;;;7.72;1.77;;;6.20;99.90;;;;;;4990831;28;20498;-76
2024/01/25 01:07:29;;;;;;;19.42;3.53;;;6.20;99.90;;;;;;4983263;28;20066;-76
2024/01/25 01:09:55;;;;;;;12.68;1.83;;;6.20;99.90;;;;;;4987764;28;20125;-76
2024/01/25 01:12:21;;;;;;;6.88;1.38;;;6.10;99.90;;;;;;4978565;28;20539;-76
2024/01/25 01:14:46;;;;;;;5.82;1.58;;;6.10;99.90;;;;;;4982795;28;20034;-76
2024/01/25 01:17:12;;;;;;;7.30;1.60;;;6.10;99.90;;;;;;4980527;28;20108;-76
2024/01/25 01:19:38;;;;;;;8.40;1.77;;;6.10;99.90;;;;;;4973524;28;20058;-76
2024/01/25 01:22:04;;;;;;;7.53;2.92;;;6.00;99.90;;;;;;4967493;28;20537;-76
2024/01/25 01:24:29;;;;;;;9.60;1.45;;;5.90;99.90;;;;;;4983883;28;20050;-76
2024/01/25 01:26:55;;;;;;;20.27;2.05;;;5.90;99.90;;;;;;4980386;28;20224;-77
2024/01/25 01:29:21;;;;;;;7.53;1.80;;;5.90;99.90;;;;;;4982384;28;20498;-77
2024/01/25 01:31:47;;;;;;;8.68;2.65;;;5.90;99.90;;;;;;4982018;28;20177;-76
2024/01/25 01:34:13;;;;;;;18.02;2.05;;;5.90;99.90;;;;;;4966484;28;20081;-75
2024/01/25 01:36:39;;;;;;;10.43;1.52;;;5.90;99.90;;;;;;4984933;28;20037;-76
2024/01/25 01:39:06;;;;;;;8.55;1.83;;;5.90;99.90;;;;;;4979841;28;20479;-76
2024/01/25 01:41:32;;;;;;;13.82;2.13;;;5.90;99.90;;;;;;4979634;28;20441;-76
2024/01/25 01:43:58;;;;;;;9.10;1.85;;;5.90;99.90;;;;;;4982940;28;20041;-76
2024/01/25 01:46:40;;;;;;;10.05;1.50;;;5.90;99.90;;;;;;4983581;28;20041;-76
2024/01/25 01:49:13;;;;;;;10.00;1.30;;;5.80;99.90;;;;;;4981749;28;20035;-75
2024/01/25 01:51:41;;;;;;;13.43;1.92;;;5.80;99.90;;;;;;5016405;28;20034;-75
2024/01/25 01:54:07;;;;;;;19.05;1.23;;;5.70;99.90;;;;;;4988192;28;20042;-76
2024/01/25 01:56:34;;;;;;;7.45;1.20;;;5.70;99.90;;;;;;4992550;28;20398;-76
2024/01/25 01:59:01;;;;;;;8.50;1.90;;;5.60;99.90;;;;;;4984915;28;20157;-75
2024/01/25 02:01:28;;;;;;;8.43;2.60;;;5.60;99.90;;;;;;4980836;28;20044;-76
2024/01/25 02:03:55;;;;;;;10.40;1.75;;;5.60;99.90;;;;;;4965997;28;20053;-76
2024/01/25 02:06:23;;;;;;;5.03;1.50;;;5.50;99.90;;;;;;4968469;28;20574;-76
2024/01/25 02:08:50;;;;;;;6.60;2.50;;;5.60;99.90;;;;;;4985428;28;20045;-76
2024/01/25 02:11:17;;;;;;;17.67;2.60;;;5.50;99.90;;;;;;4995275;28;20086;-76
2024/01/25 02:13:43;;;;;;;9.10;2.05;;;5.50;99.90;;;;;;5014424;28;20520;-76
2024/01/25 02:16:09;;;;;;;5.38;1.33;;;5.50;99.90;;;;;;5002443;28;20124;-75
2024/01/25 02:18:35;;;;;;;7.63;2.38;;;5.40;99.90;;;;;;4997894;28;20046;-76
2024/01/25 02:21:01;;;;;;;12.05;1.38;;;5.40;99.90;;;;;;5002855;28;20047;-76
2024/01/25 02:23:27;;;;;;;6.78;2.53;;;5.30;99.90;;;;;;5000893;28;20041;-76
2024/01/25 02:25:53;;;;;;;13.88;1.65;;;5.30;99.90;;;;;;4991010;28;20042;-76
2024/01/25 02:28:19;;;;;;;8.50;2.78;;;5.30;99.90;;;;;;4997684;28;20064;-76
2024/01/25 02:30:44;;;;;;;17.33;2.00;;;5.30;99.90;;;;;;4995906;28;20092;-76
2024/01/25 02:33:10;;;;;;;9.40;2.17;;;5.30;99.90;;;;;;4995659;28;20037;-76
2024/01/25 02:35:37;;;;;;;10.63;1.33;;;5.30;99.90;;;;;;5003997;28;20049;-76
2024/01/25 02:38:03;;;;;;;10.10;1.38;;;5.30;99.90;;;;;;4986360;28;20170;-75
2024/01/25 02:40:29;;;;;;;12.60;2.17;;;5.30;99.90;;;;;;5008956;28;20397;-75
2024/01/25 02:42:56;;;;;;;11.02;2.40;;;5.30;99.90;;;;;;4993342;28;20045;-76
2024/01/25 02:45:22;;;;;;;19.10;2.70;;;5.30;99.90;;;;;;4993638;28;20046;-75
2024/01/25 02:47:48;;;;;;;12.25;2.78;;;5.30;99.90;;;;;;5001763;28;20054;-76
2024/01/25 02:50:14;;;;;;;10.38;1.08;;;5.30;99.90;;;;;;5005755;28;20042;-76
2024/01/25 02:52:41;;;;;;;15.63;2.42;;;5.30;99.90;;;;;;5003487;28;20497;-76
2024/01/25 02:55:07;;;;;;;20.67;3.63;;;5.30;99.90;;;;;;4998508;28;20099;-76
2024/01/25 02:57:33;;;;;;;8.32;1.13;;;5.30;99.90;;;;;;4983166;28;20038;-76
2024/01/25 02:59:58;;;;;;;12.02;2.25;;;5.30;99.90;;;;;;5007409;28;20038;-76
2024/01/25 03:02:24;;;;;;;14.90;2.83;;;5.30;99.90;;;;;;4997718;28;20045;-76
2024/01/25 03:04:50;;;;;;;9.82;2.13;;;5.30;99.90;;;;;;4993233;28;20037;-76
2024/01/25 03:07:16;;;;;;;5.68;1.88;;;5.30;99.90;;;;;;4993022;28;20117;-76
2024/01/25 03:09:42;;;;;;;6.30;1.05;;;5.30;99.90;;;;;;5003038;28;20050;-76
2024/01/25 03:12:08;;;;;;;6.53;2.35;;;5.30;99.90;;;;;;4994756;28;20120;-76
2024/01/25 03:14:33;;;;;;;8.88;1.10;;;5.30;99.90;;;;;;4975341;28;20039;-76
2024/01/25 03:16:59;;;;;;;2.85;1.05;;;5.30;99.90;;;;;;5001153;28;20030;-76
2024/01/25 03:19:26;;;;;;;9.10;2.05;;;5.30;99.90;;;;;;4992893;28;20054;-76
2024/01/25 03:21:52;;;;;;;6.40;2.08;;;5.30;99.90;;;;;;4996524;28;20045;-76
2024/01/25 03:24:18;;;;;;;7.80;1.88;;;5.30;99.90;;;;;;4997344;28;20631;-76
2024/01/25 03:26:44;;;;;;;11.63;1.25;;;5.20;99.90;;;;;;4994980;28;20049;-76
2024/01/25 03:29:09;;;;;;;8.52;1.40;;;5.20;99.90;;;;;;4993222;28;20049;-76
2024/01/25 03:31:36;;;;;;;16.40;1.92;;;5.20;99.90;;;;;;4992844;28;20118;-75
2024/01/25 03:34:02;;;;;;;9.73;1.40;;;5.20;99.90;;;;;;5004223;28;20060;-75
2024/01/25 03:36:28;;;;;;;13.32;2.00;;;5.10;99.90;;;;;;5001051;28;20525;-75
2024/01/25 03:38:54;;;;;;;4.63;1.15;;;5.10;99.90;;;;;;5008131;28;20064;-75
2024/01/25 03:41:20;;;;;;;11.35;1.38;;;5.10;99.90;;;;;;4994171;28;20048;-75
2024/01/25 03:43:46;;;;;;;6.40;1.38;;;5.10;99.90;;;;;;5003306;28;20049;-75
2024/01/25 03:46:12;;;;;;;4.72;1.58;;;5.00;99.90;;;;;;5000254;28;20103;-75
2024/01/25 03:48:38;;;;;;;14.05;2.30;;;5.00;99.90;;;;;;4995814;28;20197;-75
2024/01/25 03:51:04;;;;;;;12.60;1.98;;;4.90;99.90;;;;;;5002015;28;20158;-75
2024/01/25 03:53:30;;;;;;;12.88;2.55;;;4.90;99.90;;;;;;5008454;28;20050;-75
2024/01/25 03:55:55;;;;;;;3.85;1.05;;;4.90;99.90;;;;;;5001747;28;20117;-76
2024/01/25 03:58:21;;;;;;;16.35;1.40;;;4.90;99.90;;;;;;4999467;28;20167;-76
2024/01/25 04:00:47;;;;;;;9.13;2.92;;;4.80;99.90;;;;;;5008737;28;20486;-75
2024/01/25 04:03:13;;;;;;;10.02;2.15;;;4.80;99.90;;;;;;4988033;28;20037;-75
2024/01/25 04:05:41;;;;;;;6.80;1.70;;;4.80;99.90;;;;;;4980992;28;20042;-75
2024/01/25 04:08:07;;;;;;;12.05;1.58;;;4.80;99.90;;;;;;4999405;28;20045;-75
2024/01/25 04:10:34;;;;;;;14.27;1.65;;;4.70;99.90;;;;;;4999082;28;20034;-75
2024/01/25 04:13:00;;;;;;;7.28;1.95;;;4.70;99.90;;;;;;5000317;28;20042;-75
2024/01/25 04:15:26;;;;;;;12.38;2.15;;;4.70;99.90;;;;;;4991811;28;20200;-75
2024/01/25 04:17:56;;;;;;;10.95;2.58;;;4.70;99.90;;;;;;4995461;28;20125;-75
2024/01/25 04:20:22;;;;;;;3.50;1.20;;;4.60;99.90;;;;;;4988152;28;20411;-76
2024/01/25 04:22:48;;;;;;;11.15;1.63;;;4.60;99.90;;;;;;4997804;28;20100;-75
2024/01/25 04:25:13;;;;;;;2.70;1.55;;;4.60;99.90;;;;;;4999565;28;20077;-75
2024/01/25 04:27:40;;;;;;;8.63;1.50;;;4.60;99.90;;;;;;4995499;28;20037;-75
2024/01/25 04:30:07;;;;;;;7.22;2.08;;;4.60;99.90;;;;;;5006696;28;20037;-75
2024/01/25 04:32:33;;;;;;;12.20;2.40;;;4.50;99.90;;;;;;4990159;28;20173;-75
2024/01/25 04:34:59;;;;;;;8.25;1.65;;;4.50;99.90;;;;;;4995898;28;20054;-75
2024/01/25 04:37:25;;;;;;;7.60;2.00;;;4.40;99.90;;;;;;4999423;28;20042;-75
2024/01/25 04:39:50;;;;;;;4.60;1.00;;;4.50;99.90;;;;;;5001727;28;20113;-75
2024/01/25 04:42:17;;;;;;;6.97;0.95;;;4.40;99.90;;;;;;5001097;28;20489;-75
2024/01/25 04:44:43;;;;;;;10.70;1.85;;;4.40;99.90;;;;;;4990912;28;20481;-75
2024/01/25 04:47:09;;;;;;;7.35;1.77;;;4.30;99.90;;;;;;4992928;28;20092;-75
2024/01/25 04:49:36;;;;;;;11.55;1.95;;;4.20;99.90;;;;;;4987184;28;20045;-76
2024/01/25 04:52:02;;;;;;;9.85;1.33;;;4.10;99.90;;;;;;4999526;28;20045;-76
2024/01/25 04:54:28;;;;;;;8.32;1.42;;;4.00;99.90;;;;;;4991135;28;20165;-75
2024/01/25 04:56:54;;;;;;;4.45;1.75;;;3.80;99.90;;;;;;4983662;28;20045;-75
2024/01/25 04:59:20;;;;;;;4.28;0.93;;;3.80;99.90;;;;;;4996489;28;20104;-74
2024/01/25 05:01:46;;;;;;;12.75;2.55;;;3.80;99.90;;;;;;5004791;28;20049;-74
2024/01/25 05:04:12;;;;;;;14.18;2.33;;;3.90;99.90;;;;;;4985729;28;20057;-74
2024/01/25 05:06:38;;;;;;;25.90;5.88;;;4.00;99.90;;;;;;5002269;28;20048;-75
2024/01/25 05:09:03;;;;;;;11.70;3.03;;;4.10;99.90;;;;;;4978871;28;20037;-76
2024/01/25 05:11:29;;;;;;;6.07;2.35;;;4.10;99.90;;;;;;4995652;28;20049;-74
2024/01/25 05:13:55;;;;;;;9.27;2.38;;;4.10;99.90;;;;;;4987029;28;20411;-75
2024/01/25 05:16:21;;;;;;;16.35;2.53;;;4.10;99.90;;;;;;4991182;28;20037;-75
2024/01/25 05:18:46;;;;;;;10.63;2.25;;;4.00;99.90;;;;;;4980943;28;20386;-75
2024/01/25 05:21:12;;;;;;;10.93;1.70;;;3.80;99.90;;;;;;4963178;28;20038;-75
2024/01/25 05:23:38;;;;;;;3.05;1.20;;;3.70;99.90;;;;;;4983091;28;20474;-75
2024/01/25 05:26:05;;;;;;;15.55;4.28;;;3.60;99.90;;;;;;4988930;28;20041;-76
2024/01/25 05:28:31;;;;;;;10.90;2.30;;;3.60;99.90;;;;;;4997743;28;20434;-74
2024/01/25 05:30:57;;;;;;;9.00;1.92;;;3.60;99.90;;;;;;4997061;28;20803;-76
2024/01/25 05:33:23;;;;;;;14.52;3.13;;;3.60;99.90;;;;;;5002125;28;20053;-76
2024/01/25 05:35:49;;;;;;;12.45;1.92;;;3.60;99.90;;;;;;4969399;28;20123;-75
2024/01/25 05:38:14;;;;;;;5.38;1.17;;;3.60;99.90;;;;;;5000545;28;20046;-75
2024/01/25 05:40:40;;;;;;;7.38;1.35;;;3.50;99.90;;;;;;5000283;28;20037;-76
2024/01/25 05:43:06;;;;;;;8.85;1.42;;;3.50;99.90;;;;;;5006430;28;20083;-76
2024/01/25 05:45:32;;;;;;;10.18;2.00;;;3.50;99.90;;;;;;4981847;28;20499;-76
2024/01/25 05:47:58;;;;;;;7.05;1.63;;;3.40;99.90;;;;;;4970421;28;20038;-76
2024/01/25 05:50:24;;;;;;;7.20;1.52;;;3.40;99.90;;;;;;5004431;28;20084;-74
2024/01/25 05:52:50;;;;;;;8.30;1.08;;;3.40;99.90;;;;;;4982227;28;20078;-76
2024/01/25 05:55:16;;;;;;;6.55;1.75;;;3.40;99.90;;;;;;4984416;28;20050;-76
2024/01/25 05:57:44;;;;;;;11.32;1.80;;;3.30;99.90;;;;;;4990485;28;20403;-77
2024/01/25 06:00:12;;;;;;;3.42;1.30;;;3.20;99.90;;;;;;4995066;28;20170;-77
2024/01/25 06:02:39;;;;;;;16.50;2.33;;;3.20;99.90;;;;;;5001739;28;20034;-77
2024/01/25 06:05:04;;;;;;;12.93;1.58;;;3.20;99.90;;;;;;4998024;28;20060;-77
2024/01/25 06:07:30;;;;;;;10.20;2.20;;;3.30;99.90;;;;;;4993548;28;20053;-76
2024/01/25 06:09:56;;;;;;;6.03;1.77;;;3.30;99.90;;;;;;4984819;28;20085;-77
2024/01/25 06:12:22;;;;;;;14.93;2.35;;;3.40;99.90;;;;;;4991322;28;20042;-76
2024/01/25 06:14:47;;;;;;;10.88;1.80;;;3.50;99.90;;;;;;5000915;28;20045;-76
2024/01/25 06:17:32;;;;;;;11.90;1.58;;;3.60;99.90;;;;;;4992486;28;20050;-76
2024/01/25 06:19:58;;;;;;;9.63;1.67;;;3.70;99.90;;;;;;4999683;28;20072;-77
2024/01/25 06:22:24;;;;;;;3.92;1.80;;;3.70;99.90;;;;;;4979740;28;20046;-76
2024/01/25 06:24:49;;;;;;;4.18;1.48;;;3.60;99.90;;;;;;4987738;28;20037;-76
2024/01/25 06:27:15;;;;;;;4.85;1.83;;;3.60;99.90;;;;;;4988930;28;20053;-77
2024/01/25 06:29:41;;;;;;;2.33;1.40;;;3.50;99.90;;;;;;4989366;28;20041;-76
2024/01/25 06:32:07;;;;;;;6.97;2.58;;;3.40;99.90;;;;;;4998201;28;20129;-77
2024/01/25 06:34:32;;;;;;;6.82;1.52;;;3.40;99.90;;;;;;4994419;28;20094;-77
2024/01/25 06:36:58;;;;;;;9.63;2.28;;;3.30;99.90;;;;;;4982562;28;20042;-76
2024/01/25 06:39:24;;;;;;;11.23;1.75;;;3.30;99.90;;;;;;5000538;28;20529;-76
2024/01/25 06:41:50;;;;;;;7.75;1.27;;;3.20;99.90;;;;;;4991674;28;20109;-76
2024/01/25 06:44:17;;;;;;;14.82;3.05;;;3.20;99.90;;;;;;4990327;28;20116;-76
2024/01/25 06:46:43;;;;;;;9.40;1.50;;;3.20;99.90;;;;;;4982826;28;20065;-76
2024/01/25 06:49:08;;;;;;;5.45;1.13;;;3.10;99.90;;;;;;4991517;28;20376;-76
2024/01/25 06:51:34;;;;;;;8.52;1.45;;;3.10;99.90;;;;;;4974808;28;20447;-76
2024/01/25 06:54:00;;;;;;;8.38;1.38;;;3.10;99.90;;;;;;4997879;28;20121;-76
2024/01/25 06:56:26;;;;;;;6.53;1.55;;;3.00;99.90;;;;;;4990504;28;20150;-76
2024/01/25 06:58:51;;;;;;;17.23;1.63;;;2.90;99.90;;;;;;4993399;28;20038;-76
2024/01/25 07:01:23;;;;;;;3.67;0.95;;;2.90;99.90;;;;;;4985862;28;20123;-75
2024/01/25 07:03:52;;;;;;;6.60;1.58;;;3.00;99.90;;;;;;4975085;28;20130;-76
2024/01/25 07:06:19;;;;;;;8.85;1.70;;;3.00;99.90;;;;;;4996355;28;20054;-76
2024/01/25 07:08:46;;;;;;;10.88;1.70;;;3.10;99.90;;;;;;4978872;28;20502;-75
2024/01/25 07:11:11;;;;;;;11.23;2.55;;;3.10;99.90;;;;;;4993945;28;20104;-75
2024/01/25 07:13:37;;;;;;;9.27;1.73;;;3.20;99.90;;;;;;4981834;28;20493;-75
2024/01/25 07:16:03;;;;;;;6.72;2.42;;;3.40;99.90;;;;;;4993246;28;20047;-75
2024/01/25 07:18:29;;;;;;;9.55;1.77;;;3.50;99.90;;;;;;4997740;28;20057;-75
2024/01/25 07:20:55;;;;;;;14.27;2.17;;;3.50;99.90;;;;;;5000368;28;20202;-76
2024/01/25 07:23:21;;;;;;;5.72;1.27;;;3.40;99.90;;;;;;4996326;28;20470;-75
2024/01/25 07:25:50;;;;;;;2.17;1.15;;;3.40;99.90;;;;;;5001660;28;20040;-75
2024/01/25 07:28:19;;;;;;;1.23;0.98;;;3.30;99.90;;;;;;4997012;28;20045;-75
2024/01/25 07:30:47;;;;;;;13.13;2.10;;;3.30;99.90;;;;;;4998423;28;20069;-75
2024/01/25 07:33:14;;;;;;;14.63;1.88;;;3.20;99.90;;;;;;4996754;28;20041;-75
2024/01/25 07:35:45;;;;;;;21.73;1.50;;;3.20;99.90;;;;;;4992970;28;20162;-75
2024/01/25 07:38:11;;;;;;;9.38;2.13;;;3.20;99.90;;;;;;4998309;28;20049;-75
2024/01/25 07:40:37;;;;;;;5.93;1.58;;;3.30;99.90;;;;;;5002718;28;20535;-76
2024/01/25 07:43:03;;;;;;;14.13;2.10;;;3.30;99.90;;;;;;4993967;28;20046;-75
2024/01/25 07:45:29;;;;;;;11.60;1.48;;;3.30;99.90;;;;;;4983965;28;20051;-75
2024/01/25 07:47:55;;;;;;;22.05;2.47;;;3.30;99.90;;;;;;4993558;28;20041;-75
2024/01/25 07:50:20;;;;;;;16.05;1.52;;;3.30;99.90;;;;;;4995047;28;20037;-75
2024/01/25 07:52:46;;;;;;;9.30;0.98;;;3.30;99.90;;;;;;4999358;28;20041;-75
2024/01/25 07:55:12;;;;;;;3.67;0.88;;;3.30;99.90;;;;;;4991711;28;20053;-75
2024/01/25 07:57:38;;;;;;;4.07;1.08;;;3.30;99.90;;;;;;5002991;28;20714;-75
2024/01/25 08:00:04;;;;;;;9.48;1.42;;;3.30;99.90;;;;;;4975632;28;20076;-75
2024/01/25 08:02:30;;;;;;;7.13;1.33;;;3.30;99.90;;;;;;4995581;28;20119;-75
2024/01/25 08:04:57;;;;;;;9.40;1.45;;;3.30;99.90;;;;;;4987678;28;20495;-75
2024/01/25 08:07:23;;;;;;;4.07;1.40;;;3.40;99.90;;;;;;4997751;28;20088;-75
2024/01/25 08:09:51;;;;;;;4.15;0.80;;;3.50;99.90;;;;;;4988506;28;20430;-75
2024/01/25 08:12:17;;;;;;;3.83;1.67;;;3.50;99.90;;;;;;5000579;28;20041;-75
2024/01/25 08:14:43;;;;;;;7.75;1.67;;;3.50;99.90;;;;;;4992073;28;20440;-75
2024/01/25 08:17:10;;;;;;;5.72;1.48;;;3.60;99.90;;;;;;4980614;28;20550;-76
2024/01/25 08:19:36;;;;;;;12.52;1.17;;;3.70;99.90;;;;;;4976060;28;20193;-76
2024/01/25 08:22:01;;;;;;;8.60;1.70;;;3.70;99.90;;;;;;4981909;28;20172;-75
2024/01/25 08:24:28;;;;;;;10.00;1.55;;;3.70;99.90;;;;;;4983486;28;20042;-75
2024/01/25 08:26:59;;;;;;;6.35;1.25;;;3.80;99.90;;;;;;4990468;28;20045;-76
2024/01/25 08:29:25;;;;;;;6.32;1.02;;;3.80;99.90;;;;;;4985415;28;20121;-77
2024/01/25 08:31:51;;;;;;;3.53;1.48;;;3.90;99.90;;;;;;4990599;28;20514;-78
2024/01/25 08:34:17;;;;;;;10.52;2.63;;;3.90;99.90;;;;;;4975671;28;20042;-74
2024/01/25 08:36:42;;;;;;;25.10;3.00;;;4.10;99.90;;;;;;4996313;28;20069;-74
2024/01/25 08:39:08;;;;;;;10.95;3.88;;;4.20;99.90;;;;;;4991894;28;20502;-73
2024/01/25 08:41:34;;;;;;;14.55;5.07;;;4.30;99.90;;;;;;4987920;28;20039;-74
2024/01/25 08:44:00;;;;;;;8.73;3.33;;;4.50;99.90;;;;;;4996948;28;20038;-74
2024/01/25 08:46:27;;;;;;;18.27;4.25;;;4.60;99.90;;;;;;5006130;28;20405;-75
2024/01/25 08:48:52;;;;;;;17.23;2.45;;;4.70;99.90;;;;;;4992308;28;20060;-76
2024/01/25 08:51:18;;;;;;;16.45;2.63;;;4.80;99.90;;;;;;4995342;28;20042;-75
2024/01/25 08:53:44;;;;;;;7.20;2.40;;;4.90;99.90;;;;;;4997144;28;20573;-74
2024/01/25 08:56:10;;;;;;;2.38;1.15;;;5.00;99.90;;;;;;4992638;28;20080;-77
2024/01/25 08:58:36;;;;;;;7.50;1.88;;;5.20;99.90;;;;;;4995251;28;20065;-75
2024/01/25 09:01:01;;;;;;;5.60;2.35;;;5.30;99.90;;;;;;4990188;28;20095;-76
2024/01/25 09:03:27;;;;;;;11.98;2.75;;;5.50;99.90;;;;;;4987662;28;20073;-76
2024/01/25 09:05:53;;;;;;;19.27;1.60;;;5.60;99.90;;;;;;4993396;28;20048;-77
2024/01/25 09:08:19;;;;;;;9.20;1.50;;;5.70;99.90;;;;;;4987186;28;20034;-76
2024/01/25 09:10:44;;;;;;;18.63;2.33;;;5.90;99.90;;;;;;4994567;28;20128;-77
2024/01/25 09:13:10;;;;;;;11.10;1.55;;;6.00;99.90;;;;;;4981844;28;20064;-76
2024/01/25 09:15:36;;;;;;;14.98;2.00;;;6.20;99.90;;;;;;4992911;28;20383;-76
2024/01/25 09:18:02;;;;;;;7.63;2.85;;;6.30;99.90;;;;;;4988585;28;20514;-77
2024/01/25 09:20:28;;;;;;;8.13;2.30;;;6.30;99.90;;;;;;4982222;28;20105;-77
2024/01/25 09:22:55;;;;;;;13.70;3.45;;;6.30;99.90;;;;;;4994799;28;20528;-77
2024/01/25 09:25:21;;;;;;;9.73;2.10;;;6.30;99.90;;;;;;4994049;28;20046;-77
2024/01/25 09:27:47;;;;;;;13.75;3.00;;;6.30;99.90;;;;;;4987709;28;20046;-77
2024/01/25 09:30:13;;;;;;;11.85;2.88;;;6.30;99.90;;;;;;4984568;28;20057;-77
2024/01/25 09:32:39;;;;;;;17.95;3.75;;;6.30;99.90;;;;;;4988713;28;20045;-77
2024/01/25 09:35:06;;;;;;;16.70;3.92;;;6.20;99.90;;;;;;4979532;28;20041;-78
2024/01/25 09:37:31;;;;;;;7.35;2.83;;;6.20;99.90;;;;;;4992306;28;20536;-77
2024/01/25 09:40:00;;;;;;;21.15;3.45;;;6.20;99.90;;;;;;4983255;28;20034;-77
2024/01/25 09:42:26;;;;;;;16.65;2.75;;;6.10;99.90;;;;;;4994403;28;20042;-77
2024/01/25 09:44:54;;;;;;;14.75;2.83;;;6.20;99.90;;;;;;4982144;28;20477;-76
2024/01/25 09:47:21;;;;;;;4.88;2.67;;;6.30;99.90;;;;;;4981723;28;20125;-76
2024/01/25 09:49:47;;;;;;;11.32;2.65;;;6.30;99.90;;;;;;4992519;28;20506;-76
2024/01/25 09:52:13;;;;;;;8.05;2.67;;;6.50;99.90;;;;;;4990235;28;20085;-77
2024/01/25 09:54:39;;;;;;;12.82;2.20;;;6.70;99.90;;;;;;5004906;28;20045;-77
2024/01/25 09:57:17;;;;;;;12.60;2.95;;;6.80;99.90;;;;;;4990056;28;20475;-77
2024/01/25 09:59:44;;;;;;;9.52;2.00;;;6.90;99.90;;;;;;4982270;28;20397;-77
2024/01/25 10:02:11;;;;;;;21.58;3.80;;;7.00;99.90;;;;;;4996966;28;20099;-77
2024/01/25 10:04:37;;;;;;;13.77;2.80;;;7.20;99.90;;;;;;4986758;28;20046;-77
2024/01/25 10:07:03;;;;;;;19.45;2.90;;;7.20;99.90;;;;;;4973367;28;20038;-77
2024/01/25 10:09:41;;;;;;;15.85;2.88;;;7.30;99.90;;;;;;4986140;28;20521;-78
2024/01/25 10:12:07;;;;;;;7.05;2.65;;;7.30;99.90;;;;;;4994505;28;20038;-76
2024/01/25 10:14:32;;;;;;;8.15;2.65;;;7.50;99.90;;;;;;4995004;28;20061;-77
2024/01/25 10:16:59;;;;;;;12.82;3.63;;;7.60;99.90;;;;;;4994412;28;20038;-75
2024/01/25 10:19:27;;;;;;;13.25;4.00;;;7.80;99.90;;;;;;4977714;28;20383;-76
2024/01/25 10:21:53;;;;;;;13.73;3.00;;;8.10;99.90;;;;;;4974729;28;20038;-76
2024/01/25 10:24:19;;;;;;;16.30;3.30;;;8.40;99.90;;;;;;4995811;28;20050;-75
2024/01/25 10:26:44;;;;;;;19.17;5.13;;;8.60;99.90;;;;;;4995476;28;20582;-76
2024/01/25 10:29:10;;;;;;;16.33;3.88;;;8.70;99.90;;;;;;4994499;28;20037;-76
2024/01/25 10:31:42;;;;;;;20.75;3.00;;;8.70;99.90;;;;;;4995008;28;20041;-76
2024/01/25 10:34:13;;;;;;;8.45;3.10;;;8.60;99.90;;;;;;4998184;28;20581;-76
2024/01/25 10:36:40;;;;;;;10.38;3.63;;;8.70;99.90;;;;;;4986438;28;20099;-77
2024/01/25 10:39:20;;;;;;;13.07;3.88;;;9.10;99.90;;;;;;4993829;28;20052;-76
2024/01/25 10:41:50;;;;;;;14.77;2.83;;;9.50;99.90;;;;;;4999671;28;20042;-76
2024/01/25 10:44:19;;;;;;;22.58;2.65;;;9.70;99.90;;;;;;4993419;28;20125;-76
2024/01/25 10:46:49;;;;;;;5.68;2.15;;;9.50;99.90;;;;;;4995926;28;20177;-76
2024/01/25 10:49:16;;;;;;;17.42;4.07;;;9.40;99.90;;;;;;4985202;28;20050;-76
2024/01/25 10:51:43;;;;;;;9.90;3.22;;;9.40;99.90;;;;;;4993695;28;20046;-76
2024/01/25 10:54:11;;;;;;;11.38;4.15;;;9.60;99.90;;;;;;4975674;28;20041;-76
2024/01/25 10:56:37;;;;;;;16.55;2.83;;;9.50;99.90;;;;;;4997776;28;20175;-76
2024/01/25 10:59:04;;;;;;;13.15;3.65;;;9.40;99.90;;;;;;4995096;28;20487;-76
2024/01/25 11:01:30;;;;;;;7.55;2.60;;;9.50;99.90;;;;;;4995207;28;20371;-76
2024/01/25 11:03:56;;;;;;;19.73;3.38;;;9.70;99.90;;;;;;4970790;28;20052;-76
2024/01/25 11:06:22;;;;;;;11.98;2.92;;;10.00;99.90;;;;;;4997801;28;20042;-76
2024/01/25 11:08:48;;;;;;;6.45;2.42;;;10.30;99.90;;;;;;4985462;28;20046;-76
2024/01/25 11:11:17;;;;;;;16.77;2.75;;;10.60;99.90;;;;;;4993094;28;20116;-76
2024/01/25 11:13:44;;;;;;;14.30;3.72;;;11.00;99.90;;;;;;4995713;28;20526;-76
2024/01/25 11:16:31;;;;;;;11.80;2.08;;;11.30;99.90;;;;;;4987192;28;20040;-76
2024/01/25 11:19:04;;;;;;;16.42;3.53;;;11.70;99.90;;;;;;4980803;28;20056;-76
2024/01/25 11:21:41;;;;;;;11.45;2.88;;;11.70;99.90;;;;;;4980954;28;20042;-76
2024/01/25 11:24:14;;;;;;;12.23;2.97;;;11.70;99.90;;;;;;4981096;28;20038;-76
2024/01/25 11:26:42;;;;;;;14.52;3.17;;;11.40;99.90;;;;;;4986745;28;20163;-76
2024/01/25 11:29:08;;;;;;;13.68;2.95;;;11.30;99.90;;;;;;4987440;28;20050;-76
2024/01/25 11:31:35;;;;;;;12.00;3.05;;;11.90;99.90;;;;;;4987481;28;20105;-76
2024/01/25 11:34:02;;;;;;;9.25;2.65;;;12.70;99.90;;;;;;4962467;28;20124;-76
2024/01/25 11:36:31;;;;;;;16.80;3.08;;;12.70;99.90;;;;;;5006807;28;20060;-76
2024/01/25 11:38:58;;;;;;;8.18;2.22;;;12.40;99.90;;;;;;4992417;28;20521;-74
2024/01/25 11:41:27;;;;;;;7.75;2.78;;;12.00;99.90;;;;;;4987536;28;20042;-76
2024/01/25 11:43:55;;;;;;;12.87;2.77;;;11.60;99.90;;;;;;4957799;28;20050;-76
2024/01/25 11:46:21;;;;;;;9.05;3.28;;;11.30;99.90;;;;;;4977641;28;20096;-77
2024/01/25 11:48:53;;;;;;;12.07;2.65;;;11.10;99.90;;;;;;4998830;28;20049;-76
2024/01/25 11:51:23;;;;;;;14.18;3.45;;;10.90;99.90;;;;;;5013273;28;20140;-76
2024/01/25 11:53:49;;;;;;;11.85;2.58;;;10.50;99.90;;;;;;4992701;28;20077;-76
2024/01/25 11:56:24;;;;;;;11.18;2.00;;;10.20;99.90;;;;;;4992630;28;20042;-76
2024/01/25 11:58:50;;;;;;;14.27;2.58;;;10.00;99.90;;;;;;4998177;28;20069;-76
2024/01/25 12:01:18;;;;;;;16.95;3.72;;;9.90;99.90;;;;;;4991058;28;20579;-76
2024/01/25 12:03:44;;;;;;;15.40;4.50;;;9.80;99.90;;;;;;4992129;28;20034;-77
2024/01/25 12:06:10;;;;;;;18.40;4.35;;;9.50;99.90;;;;;;4976720;28;20455;-77
2024/01/25 12:08:38;;;;;;;19.75;5.03;;;9.30;99.90;;;;;;4971127;28;20412;-77
2024/01/25 12:11:08;;;;;;;20.05;4.25;;;9.20;99.90;;;;;;4982700;28;20071;-76
2024/01/25 12:13:35;;;;;;;26.23;5.70;;;9.10;99.90;;;;;;4968115;28;20042;-77
2024/01/25 12:16:03;;;;;;;26.75;6.63;;;9.00;99.90;;;;;;4971740;28;20038;-76
2024/01/25 12:18:30;;;;;;;21.70;6.28;;;9.00;99.90;;;;;;4985391;28;20435;-75
2024/01/25 12:20:59;;;;;;;17.08;3.97;;;9.00;99.90;;;;;;4982104;28;20046;-78
2024/01/25 12:23:37;;;;;;;16.67;6.32;;;9.20;99.90;;;;;;4984117;28;20426;-77
2024/01/25 12:26:10;;;;;;;15.23;4.43;;;9.60;99.90;;;;;;4966689;28;20042;-77
2024/01/25 12:28:37;;;;;;;19.25;4.70;;;9.90;99.90;;;;;;4980164;28;20077;-78
2024/01/25 12:31:04;;;;;;;11.88;3.30;;;10.20;99.90;;;;;;4981087;28;20033;-77
2024/01/25 12:33:31;;;;;;;14.88;3.17;;;10.60;99.90;;;;;;4975529;28;20042;-77
2024/01/25 12:35:58;;;;;;;18.98;3.35;;;10.90;99.90;;;;;;4981340;28;20043;-77
2024/01/25 12:38:25;;;;;;;15.20;3.70;;;10.90;99.90;;;;;;4981427;28;20565;-77
2024/01/25 12:40:51;;;;;;;15.50;3.08;;;10.80;99.90;;;;;;4995595;28;20380;-77
2024/01/25 12:43:18;;;;;;;9.65;2.90;;;10.60;99.90;;;;;;4986392;28;20116;-76
2024/01/25 12:45:44;;;;;;;25.08;4.03;;;10.50;99.90;;;;;;4970543;28;20042;-76
2024/01/25 12:48:11;;;;;;;18.17;3.63;;;10.30;99.90;;;;;;4979616;28;20052;-77